sensor_id;sensor_type;location;lat;lon;timestamp;P1;durP1;ratioP1;P2;durP2;ratioP2
76595;SDS011;65485;45.990;18.670;2024-03-06T05:03:21;19.02;;;8.48;;
76595;SDS011;65485;45.990;18.670;2024-03-06T05:06:41;19.95;;;9.32;;
76595;SDS011;65485;45.990;18.670;2024-03-06T05:10:02;14.97;;;7.57;;
76595;SDS011;65485;45.990;18.670;2024-03-06T05:13:22;16.60;;;8.40;;
76595;SDS011;65485;45.990;18.670;2024-03-06T05:16:42;16.17;;;8.90;;
76595;SDS011;65485;45.990;18.670;2024-03-06T05:20:02;19.17;;;9.15;;
76595;SDS011;65485;45.990;18.670;2024-03-06T05:23:23;19.10;;;7.85;;
76595;SDS011;65485;45.990;18.670;2024-03-06T05:26:43;23.10;;;10.10;;
76595;SDS011;65485;45.990;18.670;2024-03-06T05:30:03;15.55;;;8.75;;
76595;SDS011;65485;45.990;18.670;2024-03-06T05:33:24;14.05;;;8.50;;
76595;SDS011;65485;45.990;18.670;2024-03-06T05:36:44;20.27;;;9.30;;
76595;SDS011;65485;45.990;18.670;2024-03-06T05:40:05;19.63;;;8.73;;
76595;SDS011;65485;45.990;18.670;2024-03-06T05:43:25;26.67;;;9.97;;
76595;SDS011;65485;45.990;18.670;2024-03-06T05:46:45;19.10;;;9.07;;
76595;SDS011;65485;45.990;18.670;2024-03-06T05:50:06;16.80;;;7.22;;
76595;SDS011;65485;45.990;18.670;2024-03-06T05:53:26;16.80;;;7.63;;
76595;SDS011;65485;45.990;18.670;2024-03-06T05:56:49;18.15;;;9.32;;
76595;SDS011;65485;45.990;18.670;2024-03-06T06:00:11;17.17;;;8.83;;
76595;SDS011;65485;45.990;18.670;2024-03-06T06:03:15;18.45;;;8.63;;
76595;SDS011;65485;45.990;18.670;2024-03-06T06:06:18;16.15;;;7.35;;
76595;SDS011;65485;45.990;18.670;2024-03-06T06:09:23;20.98;;;9.80;;
76595;SDS011;65485;45.990;18.670;2024-03-06T06:12:25;21.02;;;10.32;;
76595;SDS011;65485;45.990;18.670;2024-03-06T06:15:28;33.27;;;14.10;;
76595;SDS011;65485;45.990;18.670;2024-03-06T06:18:30;26.75;;;14.25;;
76595;SDS011;65485;45.990;18.670;2024-03-06T06:21:34;29.58;;;14.85;;
76595;SDS011;65485;45.990;18.670;2024-03-06T06:24:38;29.80;;;15.18;;
76595;SDS011;65485;45.990;18.670;2024-03-06T06:27:41;30.67;;;15.77;;
76595;SDS011;65485;45.990;18.670;2024-03-06T06:30:43;27.73;;;13.00;;
76595;SDS011;65485;45.990;18.670;2024-03-06T06:33:46;28.25;;;13.98;;
76595;SDS011;65485;45.990;18.670;2024-03-06T06:36:49;26.40;;;11.93;;
76595;SDS011;65485;45.990;18.670;2024-03-06T06:39:52;27.60;;;11.75;;
76595;SDS011;65485;45.990;18.670;2024-03-06T06:42:54;25.45;;;13.43;;
76595;SDS011;65485;45.990;18.670;2024-03-06T06:45:57;27.87;;;13.43;;
76595;SDS011;65485;45.990;18.670;2024-03-06T06:49:03;22.55;;;11.82;;
76595;SDS011;65485;45.990;18.670;2024-03-06T06:52:05;26.63;;;12.40;;
76595;SDS011;65485;45.990;18.670;2024-03-06T06:55:15;25.77;;;12.95;;
76595;SDS011;65485;45.990;18.670;2024-03-06T06:58:18;22.95;;;12.95;;
76595;SDS011;65485;45.990;18.670;2024-03-06T07:01:23;26.37;;;13.20;;
76595;SDS011;65485;45.990;18.670;2024-03-06T07:04:26;24.77;;;13.52;;
76595;SDS011;65485;45.990;18.670;2024-03-06T07:07:28;27.42;;;14.13;;
76595;SDS011;65485;45.990;18.670;2024-03-06T07:10:31;21.05;;;12.25;;
76595;SDS011;65485;45.990;18.670;2024-03-06T07:13:41;24.40;;;12.77;;
76595;SDS011;65485;45.990;18.670;2024-03-06T07:16:44;22.97;;;12.80;;
76595;SDS011;65485;45.990;18.670;2024-03-06T07:19:47;22.77;;;12.55;;
76595;SDS011;65485;45.990;18.670;2024-03-06T07:22:50;23.60;;;14.20;;
76595;SDS011;65485;45.990;18.670;2024-03-06T07:25:58;24.55;;;12.73;;
76595;SDS011;65485;45.990;18.670;2024-03-06T07:29:01;25.88;;;14.02;;
76595;SDS011;65485;45.990;18.670;2024-03-06T07:32:05;25.50;;;13.47;;
76595;SDS011;65485;45.990;18.670;2024-03-06T07:35:09;23.33;;;13.45;;
76595;SDS011;65485;45.990;18.670;2024-03-06T07:38:12;22.75;;;13.27;;
76595;SDS011;65485;45.990;18.670;2024-03-06T07:41:18;26.55;;;13.40;;
76595;SDS011;65485;45.990;18.670;2024-03-06T07:44:21;24.48;;;14.45;;
76595;SDS011;65485;45.990;18.670;2024-03-06T07:47:24;24.30;;;12.80;;
76595;SDS011;65485;45.990;18.670;2024-03-06T07:50:27;24.42;;;12.95;;
76595;SDS011;65485;45.990;18.670;2024-03-06T07:53:33;25.65;;;13.20;;
76595;SDS011;65485;45.990;18.670;2024-03-06T07:56:36;23.33;;;12.48;;
76595;SDS011;65485;45.990;18.670;2024-03-06T07:59:39;21.38;;;11.82;;
76595;SDS011;65485;45.990;18.670;2024-03-06T08:02:42;25.60;;;13.87;;
76595;SDS011;65485;45.990;18.670;2024-03-06T08:05:45;26.10;;;13.63;;
76595;SDS011;65485;45.990;18.670;2024-03-06T08:08:48;24.40;;;13.98;;
76595;SDS011;65485;45.990;18.670;2024-03-06T08:11:51;26.55;;;14.70;;
76595;SDS011;65485;45.990;18.670;2024-03-06T08:14:56;21.42;;;13.63;;
76595;SDS011;65485;45.990;18.670;2024-03-06T08:17:59;22.70;;;13.37;;
76595;SDS011;65485;45.990;18.670;2024-03-06T08:21:02;21.80;;;14.15;;
76595;SDS011;65485;45.990;18.670;2024-03-06T08:24:10;21.55;;;13.55;;
76595;SDS011;65485;45.990;18.670;2024-03-06T08:27:13;24.55;;;14.80;;
76595;SDS011;65485;45.990;18.670;2024-03-06T08:30:15;24.88;;;14.07;;
76595;SDS011;65485;45.990;18.670;2024-03-06T08:33:18;20.90;;;13.73;;
76595;SDS011;65485;45.990;18.670;2024-03-06T08:36:23;23.50;;;14.80;;
76595;SDS011;65485;45.990;18.670;2024-03-06T08:39:26;22.75;;;15.57;;
76595;SDS011;65485;45.990;18.670;2024-03-06T08:42:29;24.02;;;14.80;;
76595;SDS011;65485;45.990;18.670;2024-03-06T08:45:32;22.63;;;13.90;;
76595;SDS011;65485;45.990;18.670;2024-03-06T08:48:37;24.63;;;15.87;;
76595;SDS011;65485;45.990;18.670;2024-03-06T08:51:46;21.90;;;14.60;;
76595;SDS011;65485;45.990;18.670;2024-03-06T08:54:49;18.70;;;13.48;;
76595;SDS011;65485;45.990;18.670;2024-03-06T08:57:53;23.33;;;15.10;;
76595;SDS011;65485;45.990;18.670;2024-03-06T09:00:55;23.13;;;14.27;;
76595;SDS011;65485;45.990;18.670;2024-03-06T09:03:58;21.63;;;14.27;;
76595;SDS011;65485;45.990;18.670;2024-03-06T09:07:00;20.15;;;14.10;;
76595;SDS011;65485;45.990;18.670;2024-03-06T09:10:04;19.40;;;13.35;;
76595;SDS011;65485;45.990;18.670;2024-03-06T09:13:08;21.63;;;13.88;;
76595;SDS011;65485;45.990;18.670;2024-03-06T09:16:10;19.95;;;13.73;;
76595;SDS011;65485;45.990;18.670;2024-03-06T09:19:13;19.13;;;13.17;;
76595;SDS011;65485;45.990;18.670;2024-03-06T09:22:20;21.00;;;13.90;;
76595;SDS011;65485;45.990;18.670;2024-03-06T09:25:22;18.88;;;12.70;;
76595;SDS011;65485;45.990;18.670;2024-03-06T09:28:29;19.30;;;14.70;;
76595;SDS011;65485;45.990;18.670;2024-03-06T09:31:32;19.92;;;13.23;;
76595;SDS011;65485;45.990;18.670;2024-03-06T09:34:35;19.47;;;13.50;;
76595;SDS011;65485;45.990;18.670;2024-03-06T09:37:38;20.15;;;13.95;;
76595;SDS011;65485;45.990;18.670;2024-03-06T09:40:41;20.85;;;14.02;;
76595;SDS011;65485;45.990;18.670;2024-03-06T09:43:44;22.48;;;13.60;;
76595;SDS011;65485;45.990;18.670;2024-03-06T09:46:47;21.83;;;13.65;;
76595;SDS011;65485;45.990;18.670;2024-03-06T09:49:51;21.10;;;13.50;;
76595;SDS011;65485;45.990;18.670;2024-03-06T09:53:04;19.52;;;13.75;;
76595;SDS011;65485;45.990;18.670;2024-03-06T09:59:44;20.85;;;13.43;;
76595;SDS011;65485;45.990;18.670;2024-03-06T10:02:51;17.77;;;12.43;;
76595;SDS011;65485;45.990;18.670;2024-03-06T10:06:07;19.97;;;13.57;;
76595;SDS011;65485;45.990;18.670;2024-03-06T10:13:27;17.13;;;12.32;;
76595;SDS011;65485;45.990;18.670;2024-03-06T10:16:31;19.33;;;11.98;;
76595;SDS011;65485;45.990;18.670;2024-03-06T10:19:34;16.90;;;12.13;;
76595;SDS011;65485;45.990;18.670;2024-03-06T10:22:36;16.97;;;12.63;;
76595;SDS011;65485;45.990;18.670;2024-03-06T10:25:39;15.95;;;11.80;;
76595;SDS011;65485;45.990;18.670;2024-03-06T10:28:44;16.90;;;11.90;;
76595;SDS011;65485;45.990;18.670;2024-03-06T10:31:48;16.27;;;11.05;;
76595;SDS011;65485;45.990;18.670;2024-03-06T10:34:54;14.50;;;11.75;;
76595;SDS011;65485;45.990;18.670;2024-03-06T10:37:57;13.43;;;10.77;;
76595;SDS011;65485;45.990;18.670;2024-03-06T10:41:08;15.80;;;11.73;;
76595;SDS011;65485;45.990;18.670;2024-03-06T10:44:17;16.02;;;12.10;;
76595;SDS011;65485;45.990;18.670;2024-03-06T10:47:24;17.23;;;12.00;;
76595;SDS011;65485;45.990;18.670;2024-03-06T10:50:28;17.65;;;11.95;;
76595;SDS011;65485;45.990;18.670;2024-03-06T10:53:32;16.00;;;11.60;;
76595;SDS011;65485;45.990;18.670;2024-03-06T10:56:40;15.57;;;11.10;;
76595;SDS011;65485;45.990;18.670;2024-03-06T10:59:46;16.55;;;11.10;;
76595;SDS011;65485;45.990;18.670;2024-03-06T11:02:49;18.48;;;11.60;;
76595;SDS011;65485;45.990;18.670;2024-03-06T11:05:53;18.92;;;11.77;;
76595;SDS011;65485;45.990;18.670;2024-03-06T11:09:00;18.27;;;10.47;;
76595;SDS011;65485;45.990;18.670;2024-03-06T11:15:42;16.35;;;10.98;;
76595;SDS011;65485;45.990;18.670;2024-03-06T11:18:45;17.45;;;9.82;;
76595;SDS011;65485;45.990;18.670;2024-03-06T11:21:49;15.15;;;10.15;;
76595;SDS011;65485;45.990;18.670;2024-03-06T11:24:55;14.50;;;9.60;;
76595;SDS011;65485;45.990;18.670;2024-03-06T11:28:05;17.00;;;10.13;;
76595;SDS011;65485;45.990;18.670;2024-03-06T11:31:08;18.33;;;10.57;;
76595;SDS011;65485;45.990;18.670;2024-03-06T11:34:14;19.15;;;10.60;;
76595;SDS011;65485;45.990;18.670;2024-03-06T11:37:19;16.95;;;9.68;;
76595;SDS011;65485;45.990;18.670;2024-03-06T11:40:23;14.53;;;9.30;;
76595;SDS011;65485;45.990;18.670;2024-03-06T11:43:26;16.45;;;9.30;;
76595;SDS011;65485;45.990;18.670;2024-03-06T11:49:57;19.70;;;11.27;;
76595;SDS011;65485;45.990;18.670;2024-03-06T11:53:03;16.35;;;10.13;;
76595;SDS011;65485;45.990;18.670;2024-03-06T11:56:09;14.57;;;9.67;;
76595;SDS011;65485;45.990;18.670;2024-03-06T11:59:12;18.85;;;10.73;;
76595;SDS011;65485;45.990;18.670;2024-03-06T12:02:15;18.40;;;10.10;;
76595;SDS011;65485;45.990;18.670;2024-03-06T12:05:18;17.50;;;9.25;;
76595;SDS011;65485;45.990;18.670;2024-03-06T12:08:22;11.73;;;7.32;;
76595;SDS011;65485;45.990;18.670;2024-03-06T12:11:26;15.80;;;9.43;;
76595;SDS011;65485;45.990;18.670;2024-03-06T12:14:31;16.27;;;9.50;;
76595;SDS011;65485;45.990;18.670;2024-03-06T12:17:41;12.75;;;8.80;;
76595;SDS011;65485;45.990;18.670;2024-03-06T12:20:54;13.98;;;8.15;;
76595;SDS011;65485;45.990;18.670;2024-03-06T12:24:07;12.50;;;7.60;;
76595;SDS011;65485;45.990;18.670;2024-03-06T12:27:10;9.97;;;6.20;;
76595;SDS011;65485;45.990;18.670;2024-03-06T12:30:22;13.30;;;7.97;;
76595;SDS011;65485;45.990;18.670;2024-03-06T12:33:44;10.70;;;6.38;;
76595;SDS011;65485;45.990;18.670;2024-03-06T12:36:49;12.23;;;7.22;;
76595;SDS011;65485;45.990;18.670;2024-03-06T12:40:31;8.60;;;5.88;;
76595;SDS011;65485;45.990;18.670;2024-03-06T12:43:40;10.17;;;6.77;;
76595;SDS011;65485;45.990;18.670;2024-03-06T12:46:43;10.20;;;6.75;;
76595;SDS011;65485;45.990;18.670;2024-03-06T12:49:49;10.80;;;7.38;;
76595;SDS011;65485;45.990;18.670;2024-03-06T12:52:53;11.88;;;7.15;;
76595;SDS011;65485;45.990;18.670;2024-03-06T12:55:57;11.82;;;7.35;;
76595;SDS011;65485;45.990;18.670;2024-03-06T12:59:00;12.37;;;7.23;;
76595;SDS011;65485;45.990;18.670;2024-03-06T13:02:03;11.23;;;7.78;;
76595;SDS011;65485;45.990;18.670;2024-03-06T13:05:06;14.73;;;9.05;;
76595;SDS011;65485;45.990;18.670;2024-03-06T13:08:10;14.30;;;8.80;;
76595;SDS011;65485;45.990;18.670;2024-03-06T13:11:16;14.15;;;8.50;;
76595;SDS011;65485;45.990;18.670;2024-03-06T13:14:19;11.83;;;8.17;;
76595;SDS011;65485;45.990;18.670;2024-03-06T13:17:23;10.85;;;6.80;;
76595;SDS011;65485;45.990;18.670;2024-03-06T13:20:26;11.40;;;7.70;;
76595;SDS011;65485;45.990;18.670;2024-03-06T13:23:34;13.98;;;7.65;;
76595;SDS011;65485;45.990;18.670;2024-03-06T13:26:52;15.30;;;7.97;;
76595;SDS011;65485;45.990;18.670;2024-03-06T13:29:55;14.37;;;8.57;;
76595;SDS011;65485;45.990;18.670;2024-03-06T13:32:58;13.45;;;8.02;;
76595;SDS011;65485;45.990;18.670;2024-03-06T13:36:09;13.82;;;8.90;;
76595;SDS011;65485;45.990;18.670;2024-03-06T13:39:13;16.40;;;7.85;;
76595;SDS011;65485;45.990;18.670;2024-03-06T13:42:18;14.40;;;8.23;;
76595;SDS011;65485;45.990;18.670;2024-03-06T13:45:21;12.13;;;7.70;;
76595;SDS011;65485;45.990;18.670;2024-03-06T13:48:28;16.83;;;9.10;;
76595;SDS011;65485;45.990;18.670;2024-03-06T13:51:31;12.75;;;7.93;;
76595;SDS011;65485;45.990;18.670;2024-03-06T13:54:35;16.40;;;9.80;;
76595;SDS011;65485;45.990;18.670;2024-03-06T13:57:44;13.77;;;8.52;;
76595;SDS011;65485;45.990;18.670;2024-03-06T14:00:51;14.47;;;9.30;;
76595;SDS011;65485;45.990;18.670;2024-03-06T14:04:34;17.92;;;11.15;;
76595;SDS011;65485;45.990;18.670;2024-03-06T14:07:38;14.60;;;9.35;;
76595;SDS011;65485;45.990;18.670;2024-03-06T14:10:40;19.08;;;8.85;;
76595;SDS011;65485;45.990;18.670;2024-03-06T14:13:43;16.80;;;9.95;;
76595;SDS011;65485;45.990;18.670;2024-03-06T14:16:46;15.20;;;9.53;;
76595;SDS011;65485;45.990;18.670;2024-03-06T14:19:49;12.23;;;7.95;;
76595;SDS011;65485;45.990;18.670;2024-03-06T14:22:52;19.30;;;9.82;;
76595;SDS011;65485;45.990;18.670;2024-03-06T14:25:54;16.25;;;10.40;;
76595;SDS011;65485;45.990;18.670;2024-03-06T14:28:57;8.93;;;6.03;;
76595;SDS011;65485;45.990;18.670;2024-03-06T14:32:00;16.80;;;10.00;;
76595;SDS011;65485;45.990;18.670;2024-03-06T14:35:03;16.00;;;9.60;;
76595;SDS011;65485;45.990;18.670;2024-03-06T14:38:06;15.40;;;9.18;;
76595;SDS011;65485;45.990;18.670;2024-03-06T14:41:09;13.25;;;9.10;;
76595;SDS011;65485;45.990;18.670;2024-03-06T14:44:12;12.15;;;9.18;;
76595;SDS011;65485;45.990;18.670;2024-03-06T14:47:16;14.37;;;8.17;;
76595;SDS011;65485;45.990;18.670;2024-03-06T14:50:19;13.93;;;9.02;;
76595;SDS011;65485;45.990;18.670;2024-03-06T14:53:22;14.35;;;8.75;;
76595;SDS011;65485;45.990;18.670;2024-03-06T14:56:25;16.58;;;9.25;;
76595;SDS011;65485;45.990;18.670;2024-03-06T14:59:29;13.82;;;8.68;;
76595;SDS011;65485;45.990;18.670;2024-03-06T15:02:31;11.70;;;8.93;;
76595;SDS011;65485;45.990;18.670;2024-03-06T15:05:34;15.45;;;8.18;;
76595;SDS011;65485;45.990;18.670;2024-03-06T15:08:38;11.57;;;7.50;;
76595;SDS011;65485;45.990;18.670;2024-03-06T15:11:41;16.42;;;8.88;;
76595;SDS011;65485;45.990;18.670;2024-03-06T15:14:43;13.32;;;8.10;;
76595;SDS011;65485;45.990;18.670;2024-03-06T15:17:51;14.33;;;8.43;;
76595;SDS011;65485;45.990;18.670;2024-03-06T15:20:53;24.48;;;12.25;;
76595;SDS011;65485;45.990;18.670;2024-03-06T15:23:56;17.33;;;11.00;;
76595;SDS011;65485;45.990;18.670;2024-03-06T15:26:59;16.23;;;10.98;;
76595;SDS011;65485;45.990;18.670;2024-03-06T15:30:02;13.98;;;8.60;;
76595;SDS011;65485;45.990;18.670;2024-03-06T15:33:06;11.40;;;7.47;;
76595;SDS011;65485;45.990;18.670;2024-03-06T15:36:10;13.32;;;8.57;;
76595;SDS011;65485;45.990;18.670;2024-03-06T15:39:12;11.35;;;8.35;;
76595;SDS011;65485;45.990;18.670;2024-03-06T15:42:15;13.73;;;9.73;;
76595;SDS011;65485;45.990;18.670;2024-03-06T15:45:18;12.57;;;9.57;;
76595;SDS011;65485;45.990;18.670;2024-03-06T15:48:21;11.40;;;8.27;;
76595;SDS011;65485;45.990;18.670;2024-03-06T15:51:27;15.57;;;9.23;;
76595;SDS011;65485;45.990;18.670;2024-03-06T15:54:29;12.95;;;9.77;;
76595;SDS011;65485;45.990;18.670;2024-03-06T15:57:32;14.68;;;9.73;;
76595;SDS011;65485;45.990;18.670;2024-03-06T16:00:36;15.23;;;9.50;;
76595;SDS011;65485;45.990;18.670;2024-03-06T16:03:39;15.30;;;8.87;;
76595;SDS011;65485;45.990;18.670;2024-03-06T16:06:43;13.80;;;9.38;;
76595;SDS011;65485;45.990;18.670;2024-03-06T16:09:46;13.20;;;8.75;;
76595;SDS011;65485;45.990;18.670;2024-03-06T16:12:49;14.35;;;9.43;;
76595;SDS011;65485;45.990;18.670;2024-03-06T16:15:55;13.70;;;8.50;;
76595;SDS011;65485;45.990;18.670;2024-03-06T16:18:58;12.83;;;8.20;;
76595;SDS011;65485;45.990;18.670;2024-03-06T16:22:01;12.38;;;8.45;;
76595;SDS011;65485;45.990;18.670;2024-03-06T16:25:08;15.07;;;8.80;;
76595;SDS011;65485;45.990;18.670;2024-03-06T16:28:11;15.45;;;9.90;;
76595;SDS011;65485;45.990;18.670;2024-03-06T16:31:14;13.70;;;8.48;;
76595;SDS011;65485;45.990;18.670;2024-03-06T16:34:17;11.87;;;8.70;;
76595;SDS011;65485;45.990;18.670;2024-03-06T16:37:23;14.13;;;8.50;;
76595;SDS011;65485;45.990;18.670;2024-03-06T16:40:26;15.18;;;8.63;;
76595;SDS011;65485;45.990;18.670;2024-03-06T16:43:30;16.00;;;8.05;;
76595;SDS011;65485;45.990;18.670;2024-03-06T16:46:33;16.10;;;9.90;;
76595;SDS011;65485;45.990;18.670;2024-03-06T16:49:36;16.83;;;10.00;;
76595;SDS011;65485;45.990;18.670;2024-03-06T16:52:39;15.18;;;9.60;;
76595;SDS011;65485;45.990;18.670;2024-03-06T16:55:42;17.13;;;10.48;;
76595;SDS011;65485;45.990;18.670;2024-03-06T16:58:45;18.90;;;10.15;;
76595;SDS011;65485;45.990;18.670;2024-03-06T17:01:49;13.25;;;8.80;;
76595;SDS011;65485;45.990;18.670;2024-03-06T17:04:51;17.70;;;10.83;;
76595;SDS011;65485;45.990;18.670;2024-03-06T17:07:54;16.17;;;9.60;;
76595;SDS011;65485;45.990;18.670;2024-03-06T17:11:00;15.55;;;9.30;;
76595;SDS011;65485;45.990;18.670;2024-03-06T17:14:03;17.45;;;11.00;;
76595;SDS011;65485;45.990;18.670;2024-03-06T17:17:05;20.95;;;10.73;;
76595;SDS011;65485;45.990;18.670;2024-03-06T17:20:09;16.27;;;10.17;;
76595;SDS011;65485;45.990;18.670;2024-03-06T17:23:12;14.15;;;8.60;;
76595;SDS011;65485;45.990;18.670;2024-03-06T17:26:15;19.30;;;11.23;;
76595;SDS011;65485;45.990;18.670;2024-03-06T17:29:18;16.95;;;10.82;;
76595;SDS011;65485;45.990;18.670;2024-03-06T17:32:21;17.80;;;10.75;;
76595;SDS011;65485;45.990;18.670;2024-03-06T17:35:26;18.87;;;10.67;;
76595;SDS011;65485;45.990;18.670;2024-03-06T17:38:29;17.52;;;11.30;;
76595;SDS011;65485;45.990;18.670;2024-03-06T17:41:32;17.92;;;10.48;;
76595;SDS011;65485;45.990;18.670;2024-03-06T17:44:35;20.15;;;11.57;;
76595;SDS011;65485;45.990;18.670;2024-03-06T17:47:38;20.50;;;13.13;;
76595;SDS011;65485;45.990;18.670;2024-03-06T17:50:42;20.97;;;13.17;;
76595;SDS011;65485;45.990;18.670;2024-03-06T17:53:49;22.50;;;14.13;;
76595;SDS011;65485;45.990;18.670;2024-03-06T17:56:52;20.88;;;12.45;;
76595;SDS011;65485;45.990;18.670;2024-03-06T17:59:55;21.33;;;11.57;;
76595;SDS011;65485;45.990;18.670;2024-03-06T18:02:57;21.27;;;13.98;;
76595;SDS011;65485;45.990;18.670;2024-03-06T18:06:01;23.20;;;13.83;;
76595;SDS011;65485;45.990;18.670;2024-03-06T18:09:04;21.17;;;12.98;;
76595;SDS011;65485;45.990;18.670;2024-03-06T18:12:12;23.75;;;12.88;;
76595;SDS011;65485;45.990;18.670;2024-03-06T18:15:15;18.35;;;12.30;;
76595;SDS011;65485;45.990;18.670;2024-03-06T18:18:18;23.10;;;13.20;;
76595;SDS011;65485;45.990;18.670;2024-03-06T18:21:21;22.73;;;13.70;;
76595;SDS011;65485;45.990;18.670;2024-03-06T18:24:25;24.02;;;13.57;;
76595;SDS011;65485;45.990;18.670;2024-03-06T18:27:28;20.70;;;13.10;;
76595;SDS011;65485;45.990;18.670;2024-03-06T18:30:31;21.75;;;12.82;;
76595;SDS011;65485;45.990;18.670;2024-03-06T18:33:34;22.67;;;14.68;;
76595;SDS011;65485;45.990;18.670;2024-03-06T18:36:36;25.30;;;13.57;;
76595;SDS011;65485;45.990;18.670;2024-03-06T18:39:39;23.67;;;14.02;;
76595;SDS011;65485;45.990;18.670;2024-03-06T18:42:42;21.25;;;11.80;;
76595;SDS011;65485;45.990;18.670;2024-03-06T18:45:45;21.27;;;12.90;;
76595;SDS011;65485;45.990;18.670;2024-03-06T18:48:48;24.20;;;12.68;;
76595;SDS011;65485;45.990;18.670;2024-03-06T18:51:51;18.50;;;11.67;;
76595;SDS011;65485;45.990;18.670;2024-03-06T18:54:54;21.95;;;13.80;;
76595;SDS011;65485;45.990;18.670;2024-03-06T18:57:57;20.55;;;13.10;;
76595;SDS011;65485;45.990;18.670;2024-03-06T19:01:01;22.40;;;13.00;;
76595;SDS011;65485;45.990;18.670;2024-03-06T19:04:04;19.77;;;12.27;;
76595;SDS011;65485;45.990;18.670;2024-03-06T19:07:07;24.37;;;13.63;;
76595;SDS011;65485;45.990;18.670;2024-03-06T19:10:10;23.83;;;13.27;;
